Lowell, Massachusetts
Current Conditions -  °F | °C
As of 5:54 PM on Friday 19 Dec 2014 (Local Time) from KLWM Reporting Station
Clear Clear  
Wind Chill: 22°   Ceiling: Unl
Heat Index: 30°   Visibility: 10mi
Dew Point: 20°   Wind: 9mph
Humidity: 66%   Direction: 290°WNW
Pressure: 30.06"   Gusts: NA
Location:  42.65°N, 71.31°W
Report Text: KLWM 192254Z 29008KT 10SM CLR M01/M07 A3006 RMK AO2 SLP179 T10111067
Loading
Personal Weather Stations






























Interactive Weather Map New forecast layout! Learn more

10-Day Weather Forecast

Advertisements
Track Severe Weather on mobile